.
WxDataArchive / Data Records for 2006-06-02
2006-06-01 June 2006 2006-06-03

Data Records for Friday, 02 June 2006

Time	Temp	Chill	HIndex	Humid	Dewpt	 Wind 	HiWind	WindDir	Rain 	Barom 
-----	----	-----	------	-----	-----	------	------	-------	-----	----- 
00:00	67.6	67.6	67.6	68	56.7	0	1	338	0.00	29.937 
00:05	67.6	67.6	67.6	68	56.7	0	1	338	0.00	29.937 
00:10	67.6	67.6	67.6	66	55.8	0	1	338	0.00	29.937 
00:15	67.6	67.6	67.6	65	55.4	0	1	338	0.00	29.931 
00:20	67.6	67.6	67.6	65	55.4	0	1	338	0.00	29.931 
00:25	67.6	67.6	67.6	64	55.0	0	0	---	0.00	29.931 
00:30	67.4	67.4	67.4	63	54.4	0	2	338	0.00	29.931 
00:35	67.6	67.6	67.6	62	54.1	0	3	22	0.00	29.931 
00:40	67.6	67.6	67.6	60	53.2	0	2	45	0.00	29.931 
00:45	67.8	67.8	67.8	61	53.9	0	2	45	0.00	29.930 
00:50	67.8	67.8	67.8	60	53.4	0	1	45	0.00	29.930 
00:55	67.6	67.6	67.6	61	53.7	0	0	---	0.00	29.930 
01:00	67.6	67.6	67.6	62	54.1	0	0	---	0.00	29.931 
01:05	67.3	67.3	67.3	62	53.8	0	0	---	0.00	29.931 
01:10	67.3	67.3	67.3	62	53.8	0	0	---	0.00	29.931 
01:15	67.1	67.1	67.1	62	53.6	0	0	---	0.00	29.929 
01:20	66.9	66.9	66.9	62	53.4	0	0	---	0.00	29.929 
01:25	66.9	66.9	66.9	61	53.0	0	0	---	0.00	29.929 
01:30	66.9	66.9	66.9	63	53.9	0	1	45	0.00	29.928 
01:35	66.8	66.8	66.8	62	53.4	0	0	---	0.00	29.928 
01:40	66.8	66.8	66.8	62	53.4	0	0	---	0.00	29.928 
01:45	66.6	66.6	66.6	62	53.2	0	0	---	0.00	29.926 
01:50	66.6	66.6	66.6	62	53.2	0	0	---	0.00	29.926 
01:55	66.4	66.4	66.4	62	53.0	0	0	---	0.00	29.926 
02:00	66.4	66.4	66.4	62	53.0	0	0	---	0.00	29.922 
02:05	66.4	66.4	66.4	62	53.0	0	1	45	0.00	29.922 
02:10	66.4	66.4	66.4	61	52.5	0	1	45	0.00	29.922 
02:15	66.4	66.4	66.4	61	52.5	0	1	45	0.00	29.928 
02:20	66.4	66.4	66.4	61	52.5	0	1	45	0.00	29.928 
02:25	66.4	66.4	66.4	62	53.0	0	0	---	0.00	29.928 
02:30	66.4	66.4	66.4	62	53.0	0	0	---	0.00	29.925 
02:35	66.3	66.3	66.3	65	54.2	0	0	---	0.00	29.925 
02:40	66.3	66.3	66.3	68	55.4	0	1	45	0.01	29.925 
02:45	65.5	65.5	65.5	73	56.6	0	2	22	0.01	29.928 
02:50	64.8	64.8	64.8	76	57.0	0	1	22	0.01	29.928 
02:55	64.0	64.0	64.0	78	57.0	0	0	---	0.02	29.928 
03:00	63.4	63.4	63.4	81	57.5	0	0	---	0.01	29.930 
03:05	62.6	62.6	62.6	84	57.7	0	0	---	0.00	29.930 
03:10	62.1	62.1	62.1	85	57.5	0	0	---	0.01	29.930 
03:15	61.8	61.8	61.8	87	57.9	0	1	22	0.00	29.929 
03:20	61.5	61.5	61.5	88	57.9	0	0	---	0.00	29.929 
03:25	61.3	61.3	61.3	89	58.0	0	0	---	0.00	29.929 
03:30	61.2	61.2	61.2	89	57.9	0	0	---	0.01	29.933 
03:35	61.0	61.0	61.0	90	58.0	0	0	---	0.00	29.933 
03:40	61.0	61.0	61.0	90	58.0	0	1	22	0.00	29.933 
03:45	60.9	60.9	60.9	90	57.9	0	1	22	0.00	29.934 
03:50	60.9	60.9	60.9	91	58.3	0	0	---	0.00	29.934 
03:55	60.9	60.9	60.9	91	58.3	0	0	---	0.01	29.934 
04:00	60.9	60.9	60.9	91	58.3	0	1	22	0.00	29.935 
04:05	60.9	60.9	60.9	91	58.3	0	0	---	0.00	29.935 
04:10	60.9	60.9	60.9	91	58.3	0	0	---	0.01	29.935 
04:15	60.7	60.7	60.7	92	58.4	0	1	22	0.00	29.933 
04:20	60.7	60.7	60.7	92	58.4	0	0	---	0.00	29.933 
04:25	60.9	60.9	60.9	92	58.6	0	0	---	0.01	29.933 
04:30	60.9	60.9	60.9	92	58.6	0	1	22	0.00	29.931 
04:35	60.7	60.7	60.7	92	58.4	0	0	---	0.00	29.931 
04:40	60.5	60.5	60.5	92	58.2	0	0	---	0.01	29.931 
04:45	60.5	60.5	60.5	92	58.2	0	0	---	0.00	29.922 
04:50	60.4	60.4	60.4	92	58.1	0	0	---	0.01	29.922 
04:55	60.4	60.4	60.4	92	58.1	0	0	---	0.01	29.922 
05:00	60.4	60.4	60.4	92	58.1	0	0	---	0.01	29.920 
05:05	60.5	60.5	60.5	93	58.5	0	0	---	0.01	29.920 
05:10	60.5	60.5	60.5	93	58.5	0	0	---	0.01	29.920 
05:15	60.5	60.5	60.5	93	58.5	0	1	22	0.00	29.920 
05:20	60.5	60.5	60.5	94	58.8	0	1	22	0.00	29.920 
05:25	60.5	60.5	60.5	94	58.8	0	1	22	0.01	29.920 
05:30	60.5	60.5	60.5	94	58.8	0	1	22	0.00	29.919 
05:35	60.7	60.7	60.7	94	59.0	0	0	---	0.00	29.919 
05:40	60.7	60.7	60.7	94	59.0	0	0	---	0.00	29.919 
05:45	60.7	60.7	60.7	94	59.0	0	0	---	0.00	29.917 
05:50	60.5	60.5	60.5	94	58.8	0	0	---	0.00	29.917 
05:55	60.7	60.7	60.7	94	59.0	0	2	22	0.00	29.917 
06:00	60.7	60.7	60.7	94	59.0	0	1	22	0.00	29.913 
06:05	60.9	60.9	60.9	94	59.2	1	2	22	0.00	29.913 
06:10	60.9	60.9	60.9	93	58.9	1	4	22	0.00	29.913 
06:15	60.9	60.9	60.9	93	58.9	1	3	90	0.01	29.908 
06:20	60.9	60.9	60.9	91	58.3	2	3	90	0.00	29.908 
06:25	61.0	61.0	61.0	89	57.7	2	4	90	0.00	29.908 
06:30	61.2	61.2	61.2	88	57.6	2	4	90	0.00	29.904 
06:35	61.3	61.3	61.3	86	57.1	2	5	90	0.00	29.904 
06:40	61.3	61.3	61.3	87	57.4	1	3	90	0.00	29.904 
06:45	61.3	61.3	61.3	87	57.4	0	2	90	0.00	29.907 
06:50	61.2	61.2	61.2	87	57.3	1	3	90	0.00	29.907 
06:55	61.2	61.2	61.2	87	57.3	1	3	90	0.00	29.907 
07:00	61.2	61.2	61.2	87	57.3	0	2	90	0.00	29.911 
07:05	61.0	61.0	61.0	89	57.7	0	1	90	0.00	29.911 
07:10	60.7	60.7	60.7	89	57.4	0	1	90	0.00	29.911 
07:15	60.5	60.5	60.5	90	57.5	0	1	90	0.00	29.920 
07:20	60.5	60.5	60.5	91	57.9	0	0	---	0.00	29.920 
07:25	60.4	60.4	60.4	91	57.8	0	0	---	0.00	29.920 
07:30	60.2	60.2	60.2	91	57.6	0	1	90	0.00	29.923 
07:35	60.2	60.2	60.2	91	57.6	0	1	90	0.00	29.923 
07:40	60.1	60.1	60.1	91	57.5	0	1	90	0.00	29.923 
07:45	60.1	60.1	60.1	91	57.5	0	0	---	0.00	29.925 
07:50	60.1	60.1	60.1	92	57.8	0	0	---	0.00	29.925 
07:55	60.1	60.1	60.1	92	57.8	0	0	---	0.01	29.925 
08:00	59.9	59.9	59.9	91	57.3	0	1	90	0.00	29.933 
08:05	59.9	59.9	59.9	91	57.3	0	0	---	0.00	29.933 
08:10	59.9	59.9	59.9	91	57.3	0	0	---	0.00	29.933 
08:15	60.1	60.1	60.1	91	57.5	0	0	---	0.00	29.932 
08:20	60.2	60.2	60.2	92	57.9	0	0	---	0.00	29.932 
08:25	60.2	60.2	60.2	92	57.9	0	0	---	0.00	29.932 
08:30	60.4	60.4	60.4	92	58.1	0	0	---	0.00	29.931 
08:35	60.5	60.5	60.5	92	58.2	0	0	---	0.00	29.931 
08:40	60.7	60.7	60.7	93	58.7	0	0	---	0.00	29.931 
08:45	60.9	60.9	60.9	93	58.9	0	0	---	0.00	29.925 
08:50	61.2	61.2	61.2	93	59.2	0	0	---	0.00	29.925 
08:55	61.3	61.3	61.3	93	59.3	0	0	---	0.00	29.925 
09:00	61.5	61.5	61.5	91	58.8	0	1	90	0.00	29.923 
09:05	61.8	61.8	61.8	92	59.4	0	0	---	0.00	29.923 
09:10	62.0	62.0	62.0	92	59.6	0	1	90	0.00	29.923 
09:15	62.1	62.1	62.1	91	59.4	0	1	90	0.00	29.939 
09:20	62.3	62.3	62.3	91	59.6	0	0	---	0.00	29.939 
09:25	62.6	62.6	62.6	90	59.6	0	1	90	0.00	29.939 
09:30	62.7	62.7	62.7	90	59.7	0	1	90	0.00	29.936 
09:35	62.9	62.9	62.9	90	59.9	0	2	90	0.00	29.936 
09:40	62.9	62.9	62.9	89	59.6	0	2	45	0.00	29.936 
09:45	63.1	63.1	63.1	89	59.8	0	1	45	0.00	29.942 
09:50	63.1	63.1	63.1	89	59.8	0	1	45	0.00	29.942 
09:55	63.2	63.2	63.2	88	59.6	0	1	45	0.00	29.942 
10:00	63.5	63.5	63.5	89	60.2	0	0	---	0.00	29.937 
10:05	63.7	63.7	63.7	88	60.1	0	1	45	0.00	29.937 
10:10	64.0	64.0	64.0	89	60.7	0	0	---	0.00	29.937 
10:15	64.3	64.3	64.3	86	60.0	0	1	45	0.00	29.937 
10:20	64.7	64.7	64.7	87	60.7	0	1	45	0.00	29.937 
10:25	65.0	65.0	65.0	85	60.4	0	2	315	0.00	29.937 
10:30	65.3	65.3	65.3	85	60.7	0	1	315	0.00	29.937 
10:35	65.5	65.5	65.5	85	60.9	0	2	22	0.00	29.937 
10:40	66.0	66.0	66.0	85	61.4	0	1	22	0.00	29.937 
10:45	66.4	66.4	66.4	81	60.4	1	3	45	0.00	29.935 
10:50	66.8	66.8	66.8	79	60.1	0	2	90	0.00	29.935 
10:55	67.1	67.1	67.1	79	60.4	0	1	90	0.00	29.935 
11:00	67.3	67.3	67.3	78	60.2	1	4	135	0.00	29.932 
11:05	67.4	67.4	67.4	78	60.3	0	1	135	0.00	29.932 
11:10	67.6	67.6	67.6	77	60.1	0	1	135	0.00	29.932 
11:15	67.9	67.9	67.9	76	60.0	0	1	135	0.00	29.933 
11:20	68.3	68.3	68.3	77	60.8	0	4	135	0.00	29.933 
11:25	68.8	68.8	68.8	71	59.0	1	3	90	0.00	29.933 
11:30	69.1	69.1	69.1	72	59.7	0	1	90	0.00	29.935 
11:35	69.3	69.3	69.3	70	59.1	0	2	90	0.00	29.935 
11:40	69.4	69.4	69.4	68	58.4	0	2	68	0.00	29.935 
11:45	69.8	69.8	69.8	66	57.9	1	3	68	0.00	29.937 
11:50	70.1	70.1	70.1	68	59.0	2	4	112	0.00	29.937 
11:55	70.4	70.4	70.4	64	57.6	0	2	90	0.00	29.937 
12:00	70.9	70.9	70.9	65	58.5	1	4	90	0.00	29.937 
12:05	71.3	71.3	71.3	60	56.7	1	4	90	0.00	29.937 
12:10	71.3	71.3	71.3	65	58.9	0	3	90	0.00	29.937 
12:15	71.1	71.1	71.1	61	57.0	0	2	90	0.00	29.945 
12:20	71.3	71.3	71.3	63	58.0	1	2	90	0.00	29.945 
12:25	71.6	71.6	71.6	59	56.5	0	1	90	0.00	29.945 
12:30	72.0	72.0	72.0	58	56.4	0	2	90	0.00	29.941 
12:35	72.1	72.1	72.1	55	55.0	2	4	90	0.00	29.941 
12:40	72.0	72.0	72.0	61	57.8	1	4	112	0.00	29.941 
12:45	71.8	71.8	71.8	58	56.2	1	3	112	0.00	29.942 
12:50	71.6	71.6	71.6	57	55.5	2	3	112	0.00	29.942 
12:55	71.5	71.5	71.5	58	55.9	2	5	90	0.00	29.942 
13:00	71.5	71.5	71.5	57	55.5	0	1	90	0.00	29.941 
13:05	71.6	71.6	71.6	58	56.0	1	3	90	0.00	29.941 
13:10	71.8	71.8	71.8	55	54.7	1	5	112	0.00	29.941 
13:15	72.0	72.0	72.0	58	56.4	1	3	112	0.00	29.937 
13:20	72.3	72.3	72.3	54	54.7	1	2	112	0.00	29.937 
13:25	72.5	72.5	72.5	54	54.9	1	5	112	0.00	29.937 
13:30	72.8	72.8	72.8	57	56.7	1	4	90	0.00	29.933 
13:35	72.8	72.8	72.8	53	54.7	0	2	90	0.00	29.933 
13:40	73.0	73.0	73.0	52	54.3	1	3	90	0.00	29.933 
13:45	73.0	73.0	73.0	53	54.8	0	2	90	0.00	29.935 
13:50	73.0	73.0	73.0	53	54.8	0	1	90	0.00	29.935 
13:55	73.3	73.3	73.3	53	55.1	0	1	90	0.00	29.935 
14:00	73.2	73.2	73.2	47	51.7	0	2	22	0.01	29.933 
14:05	73.3	73.3	73.3	54	55.6	0	1	45	0.00	29.933 
14:10	73.5	73.5	73.5	54	55.8	0	2	22	0.00	29.933 
14:15	73.3	73.3	73.3	53	55.1	1	3	0	0.00	29.934 
14:20	73.3	73.3	73.3	52	54.6	1	3	45	0.00	29.934 
14:25	73.5	73.5	73.5	52	54.8	0	2	45	0.00	29.934 
14:30	73.5	73.5	73.5	50	53.7	0	2	45	0.00	29.932 
14:35	73.9	73.9	73.9	52	55.1	0	1	45	0.00	29.932 
14:40	74.0	74.0	74.0	52	55.2	0	1	45	0.00	29.932 
14:45	74.2	74.2	74.2	49	53.8	0	3	45	0.00	29.934 
14:50	74.4	74.4	74.4	51	55.1	1	2	22	0.00	29.934 
14:55	75.3	75.3	77.6	57	59.0	0	2	22	0.00	29.934 
15:00	75.6	75.6	77.9	52	56.7	1	2	292	0.00	29.930 
15:05	75.6	75.6	77.9	51	56.2	1	3	292	0.00	29.930 
15:10	75.4	75.4	77.8	54	57.6	1	3	68	0.00	29.930 
15:15	75.6	75.6	77.8	57	59.3	1	2	338	0.00	29.930 
15:20	75.8	75.8	78.0	53	57.4	1	2	338	0.00	29.930 
15:25	76.0	76.0	78.1	49	55.4	0	2	338	0.00	29.930 
15:30	76.1	76.1	78.1	51	56.6	1	5	315	0.00	29.929 
15:35	76.1	76.1	78.1	52	57.2	0	3	45	0.00	29.929 
15:40	75.8	75.8	78.0	54	57.9	1	5	68	0.00	29.929 
15:45	75.6	75.6	77.9	50	55.6	0	2	68	0.00	29.924 
15:50	75.4	75.4	77.8	53	57.1	1	2	0	0.00	29.924 
15:55	75.8	75.8	78.0	55	58.5	1	3	0	0.00	29.924 
16:00	76.7	76.7	78.5	53	58.3	0	2	315	0.00	29.915 
16:05	76.8	76.8	78.5	53	58.4	0	1	315	0.00	29.915 
16:10	76.7	76.7	78.5	53	58.3	1	4	292	0.00	29.915 
16:15	76.1	76.1	78.1	54	58.2	0	2	315	0.00	29.914 
16:20	76.1	76.1	78.1	54	58.2	0	2	315	0.00	29.914 
16:25	76.0	76.0	78.1	55	58.6	1	2	315	0.00	29.914 
16:30	76.1	76.1	78.1	54	58.2	1	3	270	0.00	29.907 
16:35	76.7	76.7	78.5	55	59.3	0	2	248	0.00	29.907 
16:40	77.0	77.0	78.7	55	59.6	1	2	248	0.00	29.907 
16:45	77.0	77.0	78.7	55	59.6	1	3	270	0.00	29.901 
16:50	76.7	76.7	78.5	53	58.3	1	4	292	0.00	29.901 
16:55	77.2	77.2	78.8	53	58.7	1	3	248	0.00	29.901 
17:00	77.0	77.0	78.6	49	56.4	1	2	292	0.00	29.896 
17:05	76.8	76.8	78.6	54	58.9	1	3	292	0.00	29.896 
17:10	76.5	76.5	78.4	52	57.5	1	3	0	0.00	29.896 
17:15	76.7	76.7	78.5	54	58.8	0	2	0	0.00	29.887 
17:20	76.7	76.7	78.5	54	58.8	1	4	270	0.00	29.887 
17:25	76.8	76.8	78.5	50	56.7	1	3	270	0.00	29.887 
17:30	77.2	77.2	78.7	49	56.5	2	4	270	0.00	29.881 
17:35	77.4	77.4	78.8	49	56.7	1	3	292	0.00	29.881 
17:40	77.7	77.7	79.0	50	57.6	0	2	270	0.00	29.881 
17:45	77.9	77.9	79.1	48	56.6	1	4	270	0.00	29.877 
17:50	77.6	77.6	78.9	49	56.9	1	3	270	0.00	29.877 
17:55	76.8	76.8	78.3	45	53.8	1	3	270	0.00	29.877 
18:00	76.8	76.8	78.4	48	55.6	0	3	270	0.00	29.875 
18:05	76.8	76.8	78.4	47	55.0	0	2	315	0.00	29.875 
18:10	76.8	76.8	78.4	46	54.4	0	2	315	0.00	29.875 
18:15	76.8	76.8	78.4	46	54.4	0	1	315	0.00	29.873 
18:20	76.7	76.7	78.4	47	54.9	0	1	315	0.00	29.873 
18:25	76.3	76.3	78.2	49	55.7	0	1	315	0.00	29.873 
18:30	75.8	75.8	78.0	48	54.7	0	0	---	0.00	29.872 
18:35	75.8	75.8	78.0	51	56.4	0	2	315	0.00	29.872 
18:40	75.6	75.6	77.9	50	55.6	0	1	338	0.00	29.872 
18:45	75.4	75.4	77.8	50	55.4	0	1	338	0.00	29.879 
18:50	75.4	75.4	77.8	51	56.0	0	1	338	0.00	29.879 
18:55	75.4	75.4	77.8	51	56.0	0	1	338	0.00	29.879 
19:00	75.3	75.3	77.7	50	55.4	0	1	338	0.00	29.873 
19:05	74.9	74.9	74.9	51	55.5	0	1	338	0.00	29.873 
19:10	74.4	74.4	74.4	51	55.1	0	1	338	0.00	29.873 
19:15	72.5	72.5	72.5	56	55.9	2	10	315	0.00	29.901 
19:20	68.8	68.8	68.8	64	56.1	4	14	315	0.00	29.901 
19:25	66.9	66.9	66.9	68	56.0	3	6	315	0.00	29.901 
19:30	66.0	66.0	66.0	72	56.7	3	6	0	0.00	29.927 
19:35	64.5	64.5	64.5	79	57.8	1	7	338	0.01	29.927 
19:40	62.7	62.7	62.7	84	57.8	2	6	315	0.04	29.927 
19:45	61.6	61.6	61.6	86	57.4	1	5	315	0.02	29.956 
19:50	61.0	61.0	61.0	88	57.4	1	6	22	0.02	29.956 
19:55	60.4	60.4	60.4	88	56.8	2	6	292	0.02	29.956 
20:00	60.2	60.2	60.2	90	57.3	1	4	0	0.01	29.960 
20:05	60.2	60.2	60.2	91	57.6	1	5	338	0.01	29.960 
20:10	60.2	60.2	60.2	91	57.6	1	5	112	0.02	29.960 
20:15	60.5	60.5	60.5	91	57.9	2	4	68	0.03	29.942 
20:20	60.5	60.5	60.5	90	57.5	5	11	90	0.03	29.942 
20:25	60.5	60.5	60.5	89	57.2	6	13	90	0.02	29.942 
20:30	60.5	60.5	60.5	89	57.2	4	9	90	0.01	29.908 
20:35	60.5	60.5	60.5	87	56.6	3	6	90	0.00	29.908 
20:40	60.5	60.5	60.5	85	56.0	2	4	68	0.00	29.908 
20:45	60.7	60.7	60.7	84	55.8	2	4	90	0.00	29.907 
20:50	60.9	60.9	60.9	85	56.4	1	3	112	0.00	29.907 
20:55	60.7	60.7	60.7	87	56.8	0	0	---	0.00	29.907 
21:00	60.5	60.5	60.5	89	57.2	0	0	---	0.00	29.913 
21:05	60.2	60.2	60.2	89	56.9	0	0	---	0.00	29.913 
21:10	60.1	60.1	60.1	90	57.2	0	0	---	0.00	29.913 
21:15	59.9	59.9	59.9	90	57.0	0	0	---	0.00	29.909 
21:20	59.8	59.8	59.8	91	57.2	0	0	---	0.00	29.909 
21:25	59.8	59.8	59.8	92	57.5	0	0	---	0.00	29.909 
21:30	59.6	59.6	59.6	92	57.3	0	1	112	0.00	29.911 
21:35	59.6	59.6	59.6	92	57.3	0	1	112	0.00	29.911 
21:40	59.6	59.6	59.6	92	57.3	0	1	112	0.00	29.911 
21:45	59.5	59.5	59.5	93	57.5	0	1	112	0.00	29.910 
21:50	59.3	59.3	59.3	93	57.3	0	0	---	0.00	29.910 
21:55	59.2	59.2	59.2	93	57.2	0	1	112	0.00	29.910 
22:00	59.2	59.2	59.2	93	57.2	0	1	112	0.00	29.913 
22:05	59.0	59.0	59.0	93	57.0	0	0	---	0.00	29.913 
22:10	59.0	59.0	59.0	93	57.0	0	1	112	0.00	29.913 
22:15	58.9	58.9	58.9	93	56.9	0	2	22	0.00	29.919 
22:20	58.9	58.9	58.9	93	56.9	0	1	22	0.00	29.919 
22:25	58.7	58.7	58.7	93	56.7	0	0	---	0.00	29.919 
22:30	58.6	58.6	58.6	93	56.6	0	0	---	0.00	29.924 
22:35	58.4	58.4	58.4	93	56.4	0	0	---	0.00	29.924 
22:40	58.3	58.3	58.3	93	56.3	0	0	---	0.00	29.924 
22:45	58.3	58.3	58.3	93	56.3	0	0	---	0.00	29.926 
22:50	58.1	58.1	58.1	93	56.1	0	0	---	0.00	29.926 
22:55	58.0	58.0	58.0	93	56.0	0	0	---	0.00	29.926 
23:00	58.0	58.0	58.0	93	56.0	0	0	---	0.00	29.928 
23:05	58.0	58.0	58.0	94	56.3	0	1	22	0.00	29.928 
23:10	58.0	58.0	58.0	94	56.3	0	0	---	0.00	29.928 
23:15	57.8	57.8	57.8	94	56.1	0	0	---	0.00	29.924 
23:20	57.6	57.6	57.6	94	55.9	0	0	---	0.00	29.924 
23:25	57.6	57.6	57.6	94	55.9	0	0	---	0.00	29.924 
23:30	57.5	57.5	57.5	94	55.8	0	0	---	0.00	29.923 
23:35	57.5	57.5	57.5	94	55.8	0	0	---	0.00	29.923 
23:40	57.5	57.5	57.5	94	55.8	0	0	---	0.00	29.923 
23:45	57.5	57.5	57.5	94	55.8	0	0	---	0.00	29.924 
23:50	57.5	57.5	57.5	94	55.8	0	1	22	0.00	29.924 
23:55	57.5	57.5	57.5	95	56.1	0	1	22	0.00	29.924 

CoCoRaHS
IN-AL-39
A2 Web Hosting
Creative Commons License
GoDaddy
Look for:

loaded 2017-10-17 00:07:27 • last modified 2010-11-18 10:43:29
Privacy PolicyDisclaimer
• wx.awcolley.com is powered by PmWiki v.2002016 •
• all content (unless otherwise noted) © 2017 A W Colley